createdAt,value
2023-05-21T00:00:21.405Z,23.77
2023-05-21T00:01:53.761Z,20.15
2023-05-21T00:03:27.176Z,21.25
2023-05-21T00:04:58.929Z,20.75
2023-05-21T00:06:31.333Z,19.83
2023-05-21T00:08:03.018Z,19.40
2023-05-21T00:09:35.471Z,24.83
2023-05-21T00:11:07.270Z,23.63
2023-05-21T00:12:39.027Z,23.45
2023-05-21T00:14:10.811Z,19.98
2023-05-21T00:15:42.684Z,20.85
2023-05-21T00:17:14.347Z,22.58
2023-05-21T00:18:46.022Z,20.25
2023-05-21T00:20:17.707Z,21.83
2023-05-21T00:21:49.604Z,20.15
2023-05-21T00:23:21.532Z,20.65
2023-05-21T00:24:53.307Z,18.02
2023-05-21T00:26:25.246Z,20.92
2023-05-21T00:28:01.301Z,20.00
2023-05-21T00:29:32.994Z,22.75
2023-05-21T00:31:04.587Z,21.08
2023-05-21T00:32:36.984Z,21.30
2023-05-21T00:34:08.822Z,19.35
2023-05-21T00:35:40.697Z,20.58
2023-05-21T00:37:15.289Z,21.25
2023-05-21T00:38:46.967Z,20.20
2023-05-21T00:40:18.896Z,18.77
2023-05-21T00:41:51.035Z,18.83
2023-05-21T00:43:26.581Z,22.33
2023-05-21T00:44:58.369Z,20.85
2023-05-21T00:46:30.461Z,18.98
2023-05-21T00:48:02.848Z,23.27
2023-05-21T00:49:34.568Z,17.38
2023-05-21T00:51:06.969Z,19.00
2023-05-21T00:52:42.257Z,19.63
2023-05-21T00:54:14.526Z,23.05
2023-05-21T00:55:46.800Z,21.05
2023-05-21T00:57:22.966Z,23.80
2023-05-21T00:58:57.182Z,20.08
2023-05-21T01:00:28.847Z,22.80
2023-05-21T01:02:05.462Z,22.33
2023-05-21T01:03:38.647Z,20.45
2023-05-21T01:05:11.236Z,19.88
2023-05-21T01:06:42.837Z,20.67
2023-05-21T01:08:14.970Z,19.15
2023-05-21T01:09:46.686Z,22.02
2023-05-21T01:11:19.108Z,21.40
2023-05-21T01:12:52.674Z,21.10
2023-05-21T01:14:25.047Z,20.05
2023-05-21T01:15:58.769Z,19.77
2023-05-21T01:17:31.787Z,22.15
2023-05-21T01:19:05.656Z,21.65
2023-05-21T01:20:37.835Z,21.05
2023-05-21T01:22:12.478Z,20.27
2023-05-21T01:23:44.575Z,24.65
2023-05-21T01:25:16.329Z,21.60
2023-05-21T01:26:48.237Z,21.35
2023-05-21T01:28:19.971Z,21.05
2023-05-21T01:29:51.698Z,18.55
2023-05-21T01:31:31.300Z,17.58
2023-05-21T01:33:04.902Z,21.10
2023-05-21T01:35:06.284Z,22.33
2023-05-21T01:36:43.775Z,23.58
2023-05-21T01:38:50.873Z,19.10
2023-05-21T01:40:47.201Z,19.55
2023-05-21T01:42:20.962Z,19.98
2023-05-21T01:43:56.400Z,21.58
2023-05-21T01:45:31.333Z,21.70
2023-05-21T01:47:04.884Z,20.33
2023-05-21T01:48:37.561Z,21.58
2023-05-21T01:50:10.047Z,22.02
2023-05-21T01:51:43.228Z,22.40
2023-05-21T01:53:16.045Z,22.05
2023-05-21T01:54:50.002Z,21.52
2023-05-21T01:56:25.908Z,20.52
2023-05-21T01:58:02.024Z,22.38
2023-05-21T01:59:35.072Z,18.50
2023-05-21T02:01:06.821Z,21.30
2023-05-21T02:02:38.505Z,24.20
2023-05-21T02:04:10.269Z,24.92
2023-05-21T02:05:41.966Z,21.75
2023-05-21T02:07:15.114Z,22.65
2023-05-21T02:08:48.434Z,22.50
2023-05-21T02:10:20.262Z,21.98
2023-05-21T02:11:51.948Z,23.25
2023-05-21T02:13:26.457Z,25.92
2023-05-21T02:14:58.718Z,21.48
2023-05-21T02:16:30.446Z,24.92
2023-05-21T02:18:02.482Z,22.63
2023-05-21T02:19:34.462Z,23.75
2023-05-21T02:21:06.248Z,22.80
2023-05-21T02:22:43.262Z,23.63
2023-05-21T02:24:14.929Z,22.13
2023-05-21T02:25:46.533Z,24.13
2023-05-21T02:27:18.283Z,23.33
2023-05-21T02:28:49.956Z,23.98
2023-05-21T02:30:21.760Z,22.35
2023-05-21T02:31:53.349Z,25.10
2023-05-21T02:33:24.948Z,27.90
2023-05-21T02:34:56.822Z,23.60
2023-05-21T02:36:28.883Z,23.60
2023-05-21T02:38:02.962Z,22.20
2023-05-21T02:39:34.602Z,24.77
2023-05-21T02:41:06.430Z,23.00
2023-05-21T02:42:40.255Z,21.88
2023-05-21T02:45:46.372Z,22.00
2023-05-21T02:47:19.624Z,21.08
2023-05-21T02:48:51.267Z,23.77
2023-05-21T02:50:23.425Z,23.23
2023-05-21T02:52:00.489Z,24.38
2023-05-21T02:53:32.254Z,24.70
2023-05-21T02:55:04.182Z,29.05
2023-05-21T02:56:35.791Z,22.33
2023-05-21T02:58:07.491Z,22.73
2023-05-21T02:59:39.135Z,20.13
2023-05-21T03:01:11.071Z,21.45
2023-05-21T03:02:43.599Z,22.10
2023-05-21T03:04:17.209Z,21.95
2023-05-21T03:05:48.888Z,21.40
2023-05-21T03:07:20.515Z,21.98
2023-05-21T03:08:52.190Z,22.58
2023-05-21T03:10:23.802Z,23.30
2023-05-21T03:11:55.571Z,22.40
2023-05-21T03:13:27.235Z,22.42
2023-05-21T03:14:59.739Z,22.15
2023-05-21T03:16:34.832Z,23.13
2023-05-21T03:18:06.844Z,20.65
2023-05-21T03:19:38.460Z,21.73
2023-05-21T03:21:13.216Z,20.60
2023-05-21T03:22:46.467Z,22.15
2023-05-21T03:24:18.733Z,20.58
2023-05-21T03:25:53.577Z,21.23
2023-05-21T03:28:59.750Z,23.73
2023-05-21T03:30:31.831Z,20.83
2023-05-21T03:32:37.980Z,21.55
2023-05-21T03:34:10.942Z,23.45
2023-05-21T03:35:42.810Z,19.25
2023-05-21T03:37:14.537Z,25.48
2023-05-21T03:38:47.435Z,23.08
2023-05-21T03:40:19.055Z,20.25
2023-05-21T03:41:50.802Z,21.80
2023-05-21T03:43:32.439Z,19.92
2023-05-21T03:45:04.227Z,22.52
2023-05-21T03:46:45.697Z,19.55
2023-05-21T03:48:27.027Z,23.48
2023-05-21T03:49:59.022Z,25.23
2023-05-21T03:51:31.968Z,23.73
2023-05-21T03:53:03.937Z,23.30
2023-05-21T03:54:35.913Z,22.65
2023-05-21T03:56:10.787Z,22.88
2023-05-21T03:57:42.810Z,26.63
2023-05-21T03:59:14.514Z,22.92
2023-05-21T04:00:47.432Z,25.95
2023-05-21T04:02:19.154Z,24.10
2023-05-21T04:03:50.984Z,25.17
2023-05-21T04:05:22.852Z,29.38
2023-05-21T04:06:55.350Z,26.35
2023-05-21T04:08:27.922Z,28.08
2023-05-21T04:09:59.745Z,22.95
2023-05-21T04:11:31.436Z,24.58
2023-05-21T04:13:03.085Z,25.30
2023-05-21T04:14:36.840Z,28.50
2023-05-21T04:16:09.522Z,22.73
2023-05-21T04:17:41.623Z,24.85
2023-05-21T04:19:13.604Z,24.90
2023-05-21T04:20:45.241Z,23.33
2023-05-21T04:22:16.970Z,26.20
2023-05-21T04:23:48.599Z,23.13
2023-05-21T04:25:30.414Z,21.75
2023-05-21T04:27:02.141Z,22.83
2023-05-21T04:28:36.380Z,23.67
2023-05-21T04:30:08.532Z,19.70
2023-05-21T04:31:41.583Z,22.15
2023-05-21T04:33:17.940Z,24.00
2023-05-21T04:34:50.108Z,22.35
2023-05-21T04:36:21.724Z,26.50
2023-05-21T04:37:54.983Z,25.02
2023-05-21T04:39:26.732Z,26.63
2023-05-21T04:40:58.792Z,26.48
2023-05-21T04:42:30.522Z,21.58
2023-05-21T04:44:02.454Z,20.88
2023-05-21T04:45:36.873Z,22.30
2023-05-21T04:47:08.955Z,29.65
2023-05-21T04:48:42.276Z,23.10
2023-05-21T04:50:14.110Z,23.38
2023-05-21T04:51:46.854Z,20.95
2023-05-21T04:53:18.494Z,23.63
2023-05-21T04:54:50.780Z,21.88
2023-05-21T04:56:22.483Z,24.30
2023-05-21T04:57:54.131Z,23.73
2023-05-21T04:59:25.932Z,26.52
2023-05-21T05:00:57.926Z,24.55
2023-05-21T05:02:29.619Z,22.08
2023-05-21T05:04:01.390Z,23.95
2023-05-21T05:05:33.107Z,23.15
2023-05-21T05:07:05.073Z,25.55
2023-05-21T05:08:36.983Z,27.33
2023-05-21T05:10:09.296Z,25.20
2023-05-21T05:11:41.004Z,23.67
2023-05-21T05:13:12.730Z,24.63
2023-05-21T05:14:44.542Z,26.25
2023-05-21T05:16:24.699Z,25.52
2023-05-21T05:17:56.835Z,28.00
2023-05-21T05:19:28.795Z,27.10
2023-05-21T05:21:01.390Z,28.52
2023-05-21T05:22:33.965Z,26.02
2023-05-21T05:24:06.084Z,28.83
2023-05-21T05:25:38.692Z,32.58
2023-05-21T05:27:11.190Z,27.77
2023-05-21T05:28:43.351Z,26.60
2023-05-21T05:30:15.210Z,26.90
2023-05-21T05:31:46.928Z,27.13
2023-05-21T05:33:20.025Z,26.77
2023-05-21T05:34:51.775Z,26.20
2023-05-21T05:36:24.199Z,25.75
2023-05-21T05:37:57.014Z,27.40
2023-05-21T05:39:28.763Z,25.52
2023-05-21T05:41:00.598Z,25.83
2023-05-21T05:42:32.243Z,23.58
2023-05-21T05:44:08.428Z,26.52
2023-05-21T05:45:42.339Z,24.70
2023-05-21T05:47:18.228Z,27.23
2023-05-21T05:48:49.936Z,24.05
2023-05-21T05:50:22.076Z,26.85
2023-05-21T05:51:54.587Z,28.42
2023-05-21T05:53:26.608Z,27.23
2023-05-21T05:54:58.848Z,24.83
2023-05-21T05:56:30.616Z,28.10
2023-05-21T05:58:02.295Z,25.63
2023-05-21T05:59:34.001Z,24.88
2023-05-21T06:01:06.724Z,25.92
2023-05-21T06:02:38.509Z,26.95
2023-05-21T06:04:10.379Z,25.92
2023-05-21T06:05:42.109Z,26.75
2023-05-21T06:07:13.746Z,21.92
2023-05-21T06:08:46.290Z,26.65
2023-05-21T06:10:18.778Z,27.98
2023-05-21T06:11:50.611Z,26.00
2023-05-21T06:13:22.247Z,23.83
2023-05-21T06:14:54.080Z,28.52
2023-05-21T06:16:25.873Z,26.75
2023-05-21T06:17:57.894Z,24.48
2023-05-21T06:19:29.544Z,29.67
2023-05-21T06:21:01.598Z,27.27
2023-05-21T06:22:33.925Z,25.77
2023-05-21T06:24:06.174Z,25.23
2023-05-21T06:25:38.511Z,25.33
2023-05-21T06:27:10.392Z,27.02
2023-05-21T06:28:42.686Z,28.92
2023-05-21T06:30:15.418Z,24.67
2023-05-21T06:31:47.272Z,25.85
2023-05-21T06:33:19.391Z,25.80
2023-05-21T06:34:51.210Z,26.85
2023-05-21T06:36:26.733Z,26.88
2023-05-21T06:37:58.359Z,25.63
2023-05-21T06:39:30.007Z,24.75
2023-05-21T06:41:03.926Z,25.30
2023-05-21T06:42:51.920Z,24.60
2023-05-21T06:44:26.448Z,27.05
2023-05-21T06:46:08.973Z,26.92
2023-05-21T06:47:43.940Z,25.98
2023-05-21T06:49:16.265Z,30.15
2023-05-21T06:50:48.408Z,25.02
2023-05-21T06:52:20.164Z,28.52
2023-05-21T06:53:52.294Z,30.17
2023-05-21T06:55:24.004Z,27.75
2023-05-21T06:57:16.569Z,31.40
2023-05-21T06:58:48.878Z,29.25
2023-05-21T07:00:21.381Z,25.20
2023-05-21T07:01:53.393Z,31.83
2023-05-21T07:03:25.951Z,26.75
2023-05-21T07:04:57.668Z,26.55
2023-05-21T07:06:30.219Z,26.90
2023-05-21T07:08:02.215Z,26.85
2023-05-21T07:09:34.390Z,28.05
2023-05-21T07:11:06.129Z,26.15
2023-05-21T07:12:37.855Z,26.48
2023-05-21T07:14:09.974Z,23.15
2023-05-21T07:15:42.629Z,27.90
2023-05-21T07:17:14.239Z,28.63
2023-05-21T07:18:46.806Z,28.83
2023-05-21T07:20:18.515Z,28.83
2023-05-21T07:21:53.121Z,29.23
2023-05-21T07:23:24.958Z,25.05
2023-05-21T07:24:56.720Z,29.10
2023-05-21T07:26:28.581Z,25.77
2023-05-21T07:28:00.961Z,27.33
2023-05-21T07:29:35.758Z,27.42
2023-05-21T07:31:08.452Z,26.60
2023-05-21T07:32:45.242Z,29.98
2023-05-21T07:34:17.027Z,26.50
2023-05-21T07:35:48.955Z,29.50
2023-05-21T07:37:21.382Z,24.30
2023-05-21T07:38:53.134Z,28.35
2023-05-21T07:40:24.871Z,27.30
2023-05-21T07:41:56.517Z,28.17
2023-05-21T07:43:28.205Z,29.83
2023-05-21T07:45:02.193Z,25.73
2023-05-21T07:46:37.345Z,26.27
2023-05-21T07:48:09.422Z,27.90
2023-05-21T07:49:49.761Z,27.58
2023-05-21T07:51:21.814Z,25.45
2023-05-21T07:52:53.457Z,26.90
2023-05-21T07:54:26.367Z,27.35
2023-05-21T07:55:59.690Z,24.70
2023-05-21T07:57:34.121Z,28.90
2023-05-21T07:59:08.233Z,27.95
2023-05-21T08:00:47.024Z,22.27
2023-05-21T08:02:18.854Z,23.90
2023-05-21T08:03:51.460Z,28.45
2023-05-21T08:05:24.394Z,28.80
2023-05-21T08:06:56.534Z,26.08
2023-05-21T08:08:28.213Z,25.98
2023-05-21T08:10:02.824Z,26.85
2023-05-21T08:11:35.010Z,23.73
2023-05-21T08:13:06.764Z,23.77
2023-05-21T08:14:38.548Z,22.38
2023-05-21T08:16:11.412Z,23.90
2023-05-21T08:17:43.438Z,23.85
2023-05-21T08:19:15.409Z,24.95
2023-05-21T08:20:48.348Z,26.98
2023-05-21T08:22:21.703Z,22.10
2023-05-21T08:23:54.305Z,25.05
2023-05-21T08:25:27.125Z,30.70
2023-05-21T08:27:00.138Z,24.42
2023-05-21T08:28:31.803Z,23.15
2023-05-21T08:30:05.398Z,23.90
2023-05-21T08:31:37.150Z,21.52
2023-05-21T08:33:08.895Z,22.48
2023-05-21T08:34:40.999Z,25.38
2023-05-21T08:36:36.051Z,24.48
2023-05-21T08:38:12.869Z,23.13
2023-05-21T08:39:51.008Z,24.52
2023-05-21T08:41:24.492Z,22.17
2023-05-21T08:42:56.285Z,22.45
2023-05-21T08:44:44.543Z,18.55
2023-05-21T08:46:18.981Z,22.58
2023-05-21T08:47:56.886Z,19.23
2023-05-21T08:49:33.566Z,21.27
2023-05-21T08:51:05.765Z,20.77
2023-05-21T08:52:41.927Z,20.15
2023-05-21T08:54:14.062Z,22.02
2023-05-21T08:55:47.000Z,28.77
2023-05-21T08:57:20.412Z,21.88
2023-05-21T08:58:52.469Z,22.70
2023-05-21T09:00:26.639Z,23.08
2023-05-21T09:02:00.027Z,22.45
2023-05-21T09:03:41.213Z,23.33
2023-05-21T09:05:15.565Z,20.35
2023-05-21T09:06:47.913Z,23.25
2023-05-21T09:08:29.725Z,23.33
2023-05-21T09:10:26.860Z,20.65
2023-05-21T09:11:58.562Z,19.67
2023-05-21T09:13:32.372Z,21.25
2023-05-21T09:15:07.622Z,23.08
2023-05-21T09:16:42.107Z,22.23
2023-05-21T09:18:14.743Z,19.67
2023-05-21T09:20:14.641Z,17.45
2023-05-21T09:21:52.833Z,20.83
2023-05-21T09:23:28.914Z,22.65
2023-05-21T09:25:04.663Z,26.35
2023-05-21T09:26:36.630Z,19.92
2023-05-21T09:28:15.441Z,23.13
2023-05-21T09:29:47.184Z,21.05
2023-05-21T09:31:20.178Z,17.30
2023-05-21T09:32:57.582Z,20.75
2023-05-21T09:34:29.333Z,22.20
2023-05-21T09:36:02.119Z,21.38
2023-05-21T09:37:37.776Z,20.05
2023-05-21T09:40:48.888Z,22.13
2023-05-21T09:42:22.306Z,29.45
2023-05-21T09:43:59.894Z,20.85
2023-05-21T09:45:31.741Z,20.50
2023-05-21T09:47:04.057Z,22.90
2023-05-21T09:48:38.196Z,19.75
2023-05-21T09:50:18.974Z,19.88
2023-05-21T09:51:50.606Z,19.00
2023-05-21T09:53:22.361Z,17.55
2023-05-21T09:54:54.123Z,21.52
2023-05-21T09:56:29.369Z,22.98
2023-05-21T09:58:04.621Z,23.48
2023-05-21T09:59:38.291Z,18.70
2023-05-21T10:01:11.353Z,18.67
2023-05-21T10:02:46.859Z,19.67
2023-05-21T10:04:19.058Z,18.02
2023-05-21T10:05:53.755Z,18.92
2023-05-21T10:07:27.102Z,20.38
2023-05-21T10:09:04.745Z,19.60
2023-05-21T10:10:38.862Z,18.13
2023-05-21T10:12:11.334Z,16.75
2023-05-21T10:13:48.964Z,19.65
2023-05-21T10:15:25.423Z,20.63
2023-05-21T10:16:57.419Z,20.63
2023-05-21T10:18:30.817Z,18.50
2023-05-21T10:20:02.819Z,20.58
2023-05-21T10:21:34.950Z,19.50
2023-05-21T10:23:07.431Z,22.25
2023-05-21T10:24:40.772Z,21.15
2023-05-21T10:26:12.997Z,23.63
2023-05-21T10:27:45.302Z,19.90
2023-05-21T10:29:19.896Z,22.88
2023-05-21T10:30:53.529Z,19.13
2023-05-21T10:32:30.376Z,19.23
2023-05-21T10:34:05.899Z,20.52
2023-05-21T10:35:40.407Z,20.50
2023-05-21T10:37:13.225Z,20.45
2023-05-21T10:38:45.798Z,20.75
2023-05-21T10:40:18.598Z,23.25
2023-05-21T10:42:14.562Z,18.75
2023-05-21T10:44:04.259Z,20.00
2023-05-21T10:46:00.023Z,17.48
2023-05-21T10:47:57.490Z,21.60
2023-05-21T10:49:45.908Z,22.95
2023-05-21T10:53:44.439Z,21.30
2023-05-21T10:55:47.103Z,18.65
2023-05-21T10:57:27.902Z,20.70
2023-05-21T10:59:15.262Z,20.23
2023-05-21T11:00:47.382Z,21.95
2023-05-21T11:02:21.043Z,30.17
2023-05-21T11:03:52.975Z,17.95
2023-05-21T11:05:52.584Z,20.60
2023-05-21T11:07:51.473Z,18.10
2023-05-21T11:09:23.189Z,15.90
2023-05-21T11:10:58.002Z,21.48
2023-05-21T11:12:34.914Z,20.25
2023-05-21T11:14:26.515Z,19.42
2023-05-21T11:15:58.267Z,17.17
2023-05-21T11:17:39.018Z,19.27
2023-05-21T11:19:17.346Z,18.98
2023-05-21T11:20:52.016Z,16.55
2023-05-21T11:22:26.792Z,16.33
2023-05-21T11:24:06.490Z,18.50
2023-05-21T11:25:38.218Z,18.30
2023-05-21T11:27:10.082Z,15.73
2023-05-21T11:28:41.725Z,17.17
2023-05-21T11:30:18.397Z,20.50
2023-05-21T11:32:03.040Z,16.67
2023-05-21T11:33:34.736Z,17.58
2023-05-21T11:35:07.133Z,18.55
2023-05-21T11:36:39.694Z,16.95
2023-05-21T11:38:11.405Z,19.90
2023-05-21T11:39:46.656Z,17.13
2023-05-21T11:41:20.155Z,17.27
2023-05-21T11:42:53.840Z,18.65
2023-05-21T11:44:41.406Z,16.58
2023-05-21T11:46:14.219Z,20.65
2023-05-21T11:47:48.255Z,17.65
2023-05-21T11:49:22.118Z,18.45
2023-05-21T11:50:53.956Z,17.83
2023-05-21T11:52:26.869Z,16.00
2023-05-21T11:53:59.108Z,17.38
2023-05-21T11:55:31.155Z,16.65
2023-05-21T11:57:06.936Z,18.05
2023-05-21T12:00:18.268Z,20.13
2023-05-21T12:01:50.342Z,18.08
2023-05-21T12:03:26.737Z,20.92
2023-05-21T12:05:00.543Z,16.52
2023-05-21T12:06:32.460Z,16.65
2023-05-21T12:08:08.614Z,17.67
2023-05-21T12:09:41.805Z,15.20
2023-05-21T12:11:13.859Z,16.90
2023-05-21T12:12:54.939Z,14.43
2023-05-21T12:14:28.079Z,17.48
2023-05-21T12:15:59.824Z,15.05
2023-05-21T12:17:31.912Z,15.65
2023-05-21T12:19:03.926Z,13.70
2023-05-21T12:20:35.797Z,17.90
2023-05-21T12:22:08.107Z,14.60
2023-05-21T12:23:39.806Z,15.02
2023-05-21T12:25:12.165Z,13.55
2023-05-21T12:26:45.980Z,17.52
2023-05-21T12:28:17.855Z,16.98
2023-05-21T12:29:54.252Z,14.55
2023-05-21T12:31:27.502Z,14.38
2023-05-21T12:32:59.873Z,14.40
2023-05-21T12:34:46.206Z,14.50
2023-05-21T12:36:31.913Z,13.00
2023-05-21T12:38:04.025Z,14.60
2023-05-21T12:39:40.369Z,14.10
2023-05-21T12:41:12.035Z,13.18
2023-05-21T12:42:44.500Z,15.68
2023-05-21T12:44:16.400Z,15.73
2023-05-21T12:45:48.303Z,12.68
2023-05-21T12:47:23.573Z,18.55
2023-05-21T12:48:56.016Z,12.85
2023-05-21T12:50:27.660Z,14.13
2023-05-21T12:51:59.294Z,14.60
2023-05-21T12:53:42.346Z,14.57
2023-05-21T12:55:15.030Z,13.43
2023-05-21T12:56:46.809Z,15.38
2023-05-21T12:58:22.115Z,14.65
2023-05-21T12:59:58.408Z,13.57
2023-05-21T13:01:30.571Z,14.38
2023-05-21T13:03:04.429Z,16.45
2023-05-21T13:04:36.860Z,15.60
2023-05-21T13:06:09.254Z,13.55
2023-05-21T13:07:40.978Z,15.32
2023-05-21T13:09:12.583Z,14.00
2023-05-21T13:10:44.290Z,14.52
2023-05-21T13:12:16.010Z,12.65
2023-05-21T13:13:47.721Z,14.57
2023-05-21T13:15:19.397Z,14.48
2023-05-21T13:16:50.968Z,11.18
2023-05-21T13:18:22.861Z,13.40
2023-05-21T13:20:18.336Z,13.90
2023-05-21T13:21:50.046Z,12.50
2023-05-21T13:23:21.650Z,16.00
2023-05-21T13:24:53.318Z,12.38
2023-05-21T13:26:25.011Z,11.55
2023-05-21T13:27:57.449Z,14.40
2023-05-21T13:29:29.445Z,12.63
2023-05-21T13:31:01.232Z,14.13
2023-05-21T13:32:32.976Z,12.82
2023-05-21T13:34:05.624Z,12.05
2023-05-21T13:35:37.879Z,11.90
2023-05-21T13:37:09.513Z,12.00
2023-05-21T13:38:41.163Z,13.38
2023-05-21T13:40:15.287Z,12.98
2023-05-21T13:41:48.322Z,11.93
2023-05-21T13:43:20.035Z,12.15
2023-05-21T13:44:51.593Z,15.25
2023-05-21T13:46:23.337Z,14.05
2023-05-21T13:47:55.877Z,12.25
2023-05-21T13:49:27.581Z,11.48
2023-05-21T13:50:59.201Z,10.48
2023-05-21T13:52:30.994Z,11.60
2023-05-21T13:54:02.787Z,13.07
2023-05-21T13:55:34.425Z,13.98
2023-05-21T13:57:06.367Z,13.25
2023-05-21T13:58:40.470Z,12.57
2023-05-21T14:00:15.561Z,11.98
2023-05-21T14:03:20.475Z,11.82
2023-05-21T14:04:52.163Z,11.73
2023-05-21T14:06:23.837Z,12.00
2023-05-21T14:07:56.116Z,11.23
2023-05-21T14:09:29.716Z,12.23
2023-05-21T14:11:04.004Z,11.02
2023-05-21T14:12:36.619Z,13.95
2023-05-21T14:14:08.252Z,11.93
2023-05-21T14:15:39.870Z,11.07
2023-05-21T14:17:11.569Z,11.85
2023-05-21T14:18:43.165Z,12.93
2023-05-21T14:20:14.906Z,13.57
2023-05-21T14:21:46.623Z,10.07
2023-05-21T14:23:18.228Z,11.70
2023-05-21T14:24:51.185Z,11.20
2023-05-21T14:26:22.919Z,16.67
2023-05-21T14:27:54.647Z,10.95
2023-05-21T14:29:26.405Z,11.32
2023-05-21T14:30:57.990Z,11.15
2023-05-21T14:32:29.688Z,12.40
2023-05-21T14:34:02.975Z,15.18
2023-05-21T14:35:34.811Z,14.18
2023-05-21T14:37:06.657Z,14.07
2023-05-21T14:38:38.383Z,13.18
2023-05-21T14:40:10.477Z,12.80
2023-05-21T14:41:42.114Z,11.70
2023-05-21T14:43:13.897Z,11.35
2023-05-21T14:44:45.526Z,11.48
2023-05-21T14:46:17.156Z,11.18
2023-05-21T14:47:49.001Z,12.00
2023-05-21T14:49:20.828Z,10.55
2023-05-21T14:50:53.611Z,13.57
2023-05-21T14:52:25.346Z,12.85
2023-05-21T14:53:57.643Z,10.23
2023-05-21T14:55:29.629Z,15.43
2023-05-21T14:57:01.219Z,12.40
2023-05-21T14:58:33.015Z,11.88
2023-05-21T15:00:05.610Z,11.60
2023-05-21T15:01:37.353Z,12.13
2023-05-21T15:03:09.038Z,11.48
2023-05-21T15:04:40.856Z,9.95
2023-05-21T15:06:12.456Z,13.68
2023-05-21T15:07:44.326Z,14.63
2023-05-21T15:09:15.980Z,11.60
2023-05-21T15:10:47.655Z,11.90
2023-05-21T15:12:19.393Z,12.05
2023-05-21T15:13:50.960Z,12.32
2023-05-21T15:15:22.815Z,11.18
2023-05-21T15:16:54.537Z,13.05
2023-05-21T15:18:26.301Z,11.75
2023-05-21T15:19:57.912Z,12.15
2023-05-21T15:21:29.611Z,10.82
2023-05-21T15:23:12.707Z,12.60
2023-05-21T15:24:48.227Z,11.60
2023-05-21T15:26:19.994Z,11.65
2023-05-21T15:27:51.652Z,12.10
2023-05-21T15:29:23.327Z,14.30
2023-05-21T15:30:54.992Z,11.93
2023-05-21T15:32:26.626Z,13.23
2023-05-21T15:33:59.702Z,12.30
2023-05-21T15:35:32.272Z,11.32
2023-05-21T15:37:04.414Z,11.95
2023-05-21T15:38:36.459Z,10.25
2023-05-21T15:40:09.303Z,12.38
2023-05-21T15:41:41.023Z,9.90
2023-05-21T15:43:12.744Z,11.63
2023-05-21T15:44:44.449Z,9.20
2023-05-21T15:46:16.348Z,9.70
2023-05-21T15:47:48.219Z,12.15
2023-05-21T15:49:20.382Z,10.30
2023-05-21T15:50:52.096Z,11.73
2023-05-21T15:52:23.687Z,10.35
2023-05-21T15:53:56.013Z,10.85
2023-05-21T15:55:27.703Z,9.00
2023-05-21T15:56:59.392Z,12.77
2023-05-21T15:58:31.556Z,9.82
2023-05-21T16:00:04.022Z,9.90
2023-05-21T16:01:40.520Z,11.23
2023-05-21T16:03:12.716Z,10.23
2023-05-21T16:04:44.412Z,8.73
2023-05-21T16:06:16.213Z,11.82
2023-05-21T16:07:47.834Z,12.57
2023-05-21T16:09:19.599Z,9.82
2023-05-21T16:10:51.170Z,9.45
2023-05-21T16:12:22.948Z,12.32
2023-05-21T16:13:54.907Z,10.27
2023-05-21T16:15:28.494Z,11.52
2023-05-21T16:17:00.265Z,8.23
2023-05-21T16:18:32.865Z,12.40
2023-05-21T16:20:05.854Z,10.38
2023-05-21T16:21:37.647Z,13.57
2023-05-21T16:23:09.386Z,10.55
2023-05-21T16:24:41.087Z,10.45
2023-05-21T16:26:13.000Z,8.88
2023-05-21T16:27:44.629Z,9.45
2023-05-21T16:29:16.696Z,11.35
2023-05-21T16:30:48.317Z,9.52
2023-05-21T16:32:20.184Z,10.48
2023-05-21T16:33:51.905Z,12.20
2023-05-21T16:35:23.537Z,8.82
2023-05-21T16:36:55.254Z,13.73
2023-05-21T16:38:26.954Z,11.07
2023-05-21T16:39:58.558Z,11.35
2023-05-21T16:41:30.246Z,12.30
2023-05-21T16:43:02.415Z,9.85
2023-05-21T16:44:34.400Z,11.50
2023-05-21T16:46:06.136Z,10.48
2023-05-21T16:47:37.839Z,10.98
2023-05-21T16:49:09.545Z,10.13
2023-05-21T16:50:41.375Z,11.20
2023-05-21T16:52:13.058Z,9.65
2023-05-21T16:53:44.784Z,9.68
2023-05-21T16:55:16.406Z,13.07
2023-05-21T16:56:48.079Z,11.35
2023-05-21T16:58:19.873Z,10.55
2023-05-21T16:59:51.621Z,9.52
2023-05-21T17:01:23.354Z,13.07
2023-05-21T17:02:55.377Z,11.73
2023-05-21T17:04:27.121Z,13.82
2023-05-21T17:05:58.747Z,10.65
2023-05-21T17:07:31.437Z,13.88
2023-05-21T17:09:03.840Z,12.35
2023-05-21T17:10:36.052Z,13.57
2023-05-21T17:12:07.867Z,14.45
2023-05-21T17:13:39.567Z,11.38
2023-05-21T17:15:11.374Z,10.30
2023-05-21T17:16:43.136Z,11.20
2023-05-21T17:18:14.990Z,11.98
2023-05-21T17:19:47.393Z,12.18
2023-05-21T17:21:20.046Z,10.02
2023-05-21T17:22:52.249Z,11.90
2023-05-21T17:24:24.751Z,11.15
2023-05-21T17:25:56.451Z,11.02
2023-05-21T17:27:28.144Z,12.63
2023-05-21T17:28:59.895Z,12.90
2023-05-21T17:30:31.527Z,12.68
2023-05-21T17:32:04.454Z,10.80
2023-05-21T17:33:39.608Z,11.57
2023-05-21T17:35:11.430Z,11.52
2023-05-21T17:36:43.125Z,9.60
2023-05-21T17:38:15.073Z,10.93
2023-05-21T17:39:46.791Z,10.65
2023-05-21T17:41:21.767Z,10.07
2023-05-21T17:42:53.541Z,9.45
2023-05-21T17:44:25.284Z,12.00
2023-05-21T17:45:56.960Z,9.63
2023-05-21T17:47:28.653Z,10.20
2023-05-21T17:49:00.395Z,10.95
2023-05-21T17:50:32.103Z,11.48
2023-05-21T17:52:04.572Z,12.13
2023-05-21T17:53:36.180Z,12.07
2023-05-21T17:55:08.199Z,12.20
2023-05-21T17:56:39.907Z,9.13
2023-05-21T17:58:11.607Z,12.50
2023-05-21T17:59:45.317Z,11.98
2023-05-21T18:01:17.005Z,12.85
2023-05-21T18:02:48.734Z,14.38
2023-05-21T18:04:20.554Z,12.25
2023-05-21T18:05:52.199Z,12.07
2023-05-21T18:07:23.877Z,16.85
2023-05-21T18:08:55.481Z,14.50
2023-05-21T18:10:27.238Z,18.77
2023-05-21T18:11:59.973Z,14.15
2023-05-21T18:13:31.892Z,14.63
2023-05-21T18:15:03.676Z,13.50
2023-05-21T18:16:35.555Z,14.00
2023-05-21T18:18:07.526Z,13.13
2023-05-21T18:19:39.260Z,14.25
2023-05-21T18:21:11.265Z,13.27
2023-05-21T18:22:44.018Z,13.40
2023-05-21T18:24:15.851Z,12.90
2023-05-21T18:25:47.518Z,14.15
2023-05-21T18:27:19.164Z,11.90
2023-05-21T18:28:50.952Z,13.43
2023-05-21T18:30:22.531Z,14.05
2023-05-21T18:31:54.314Z,14.38
2023-05-21T18:33:26.198Z,15.32
2023-05-21T18:34:58.793Z,15.15
2023-05-21T18:36:38.337Z,12.85
2023-05-21T18:38:11.189Z,10.65
2023-05-21T18:39:43.029Z,13.50
2023-05-21T18:41:14.941Z,14.45
2023-05-21T18:42:46.842Z,18.20
2023-05-21T18:44:18.903Z,14.45
2023-05-21T18:45:51.329Z,12.95
2023-05-21T18:47:23.251Z,13.27
2023-05-21T18:48:56.017Z,11.80
2023-05-21T18:50:27.726Z,11.60
2023-05-21T18:52:01.050Z,13.73
2023-05-21T18:53:33.591Z,9.90
2023-05-21T18:55:06.598Z,11.27
2023-05-21T18:56:39.148Z,10.65
2023-05-21T18:58:10.962Z,11.88
2023-05-21T18:59:42.569Z,10.73
2023-05-21T19:01:14.466Z,13.00
2023-05-21T19:02:46.914Z,15.52
2023-05-21T19:04:19.957Z,12.48
2023-05-21T19:05:51.586Z,15.93
2023-05-21T19:07:23.443Z,13.05
2023-05-21T19:08:55.290Z,14.32
2023-05-21T19:10:27.002Z,16.75
2023-05-21T19:12:00.574Z,13.70
2023-05-21T19:13:32.222Z,13.98
2023-05-21T19:15:04.226Z,12.40
2023-05-21T19:16:36.025Z,16.02
2023-05-21T19:18:08.276Z,18.85
2023-05-21T19:19:40.411Z,14.80
2023-05-21T19:21:12.150Z,12.80
2023-05-21T19:22:43.865Z,15.70
2023-05-21T19:24:15.458Z,14.98
2023-05-21T19:25:47.265Z,14.38
2023-05-21T19:27:19.442Z,16.33
2023-05-21T19:28:53.791Z,13.23
2023-05-21T19:30:25.922Z,12.80
2023-05-21T19:31:59.149Z,16.50
2023-05-21T19:33:30.944Z,11.98
2023-05-21T19:35:04.695Z,12.23
2023-05-21T19:36:52.394Z,13.95
2023-05-21T19:38:25.401Z,19.77
2023-05-21T19:39:57.531Z,12.45
2023-05-21T19:41:29.330Z,14.68
2023-05-21T19:43:01.332Z,15.15
2023-05-21T19:44:33.455Z,15.90
2023-05-21T19:46:05.388Z,14.20
2023-05-21T19:47:38.197Z,14.00
2023-05-21T19:49:14.585Z,15.90
2023-05-21T19:50:46.535Z,15.13
2023-05-21T19:52:18.698Z,14.57
2023-05-21T19:53:50.489Z,14.93
2023-05-21T19:55:22.818Z,18.02
2023-05-21T19:56:54.676Z,16.92
2023-05-21T19:58:29.728Z,15.02
2023-05-21T20:00:02.258Z,11.82
2023-05-21T20:01:45.339Z,15.02
2023-05-21T20:03:17.979Z,14.13
2023-05-21T20:04:50.969Z,12.02
2023-05-21T20:06:23.122Z,12.93
2023-05-21T20:07:56.431Z,13.57
2023-05-21T20:09:28.610Z,13.52
2023-05-21T20:11:00.568Z,14.55
2023-05-21T20:12:32.713Z,14.15
2023-05-21T20:14:04.734Z,13.63
2023-05-21T20:15:36.466Z,14.88